OHSHT EFTP-EFTP
Flight info
| Callsign | OHSHT |
|---|---|
| Flight time | N/A |
| Altitude | 1500 |
| Route | TC PUPPA TC |
| Aircraft | DA42/L-SBDGRY/S |
Departure
| Time | 2026-05-05 16:09 |
|---|---|
| Airport | Tampere-Pirkkala Airport (EFTP) |
Arrival
| Time | N/A |
|---|---|
| Airport | Tampere-Pirkkala Airport (EFTP) |
| Time | Latitude | Longitude | Altitude | Speed | Heading |
|---|---|---|---|---|---|
| 2026-05-05 15:56 | 61.41778 | 23.60279 | 384 ft | 0 kts | 211° |
| 2026-05-05 16:04 | 61.41757 | 23.60231 | 384 ft | 12 kts | 241° |
| 2026-05-05 16:04 | 61.41707 | 23.60171 | 384 ft | 15 kts | 160° |
| 2026-05-05 16:04 | 61.41612 | 23.60262 | 384 ft | 9 kts | 156° |
| 2026-05-05 16:04 | 61.41595 | 23.60413 | 383 ft | 20 kts | 67° |
| 2026-05-05 16:05 | 61.41665 | 23.60733 | 378 ft | 25 kts | 66° |
| 2026-05-05 16:05 | 61.41741 | 23.61059 | 373 ft | 21 kts | 60° |
| 2026-05-05 16:05 | 61.41791 | 23.61302 | 371 ft | 18 kts | 89° |
| 2026-05-05 16:05 | 61.41735 | 23.61407 | 371 ft | 2 kts | 156° |
| 2026-05-05 16:06 | 61.41732 | 23.61410 | 371 ft | 0 kts | 158° |
| 2026-05-05 16:08 | 61.41710 | 23.61436 | 372 ft | 13 kts | 152° |
| 2026-05-05 16:08 | 61.41634 | 23.61393 | 376 ft | 5 kts | 244° |
| 2026-05-05 16:08 | 61.41633 | 23.61392 | 376 ft | 0 kts | 244° |
| 2026-05-05 16:09 | 61.41627 | 23.61366 | 377 ft | 16 kts | 243° |
| 2026-05-05 16:09 | 61.41489 | 23.60763 | 393 ft | 70 kts | 248° |
| 2026-05-05 16:09 | 61.41235 | 23.59795 | 699 ft | 77 kts | 242° |
| 2026-05-05 16:09 | 61.40963 | 23.58777 | 1021 ft | 83 kts | 244° |
| 2026-05-05 16:10 | 61.40512 | 23.58020 | 1215 ft | 112 kts | 174° |
| 2026-05-05 16:10 | 61.40205 | 23.59570 | 1194 ft | 136 kts | 79° |
| 2026-05-05 16:10 | 61.40346 | 23.61342 | 1126 ft | 114 kts | 74° |
| 2026-05-05 16:10 | 61.40296 | 23.62958 | 864 ft | 115 kts | 107° |
| 2026-05-05 16:11 | 61.40251 | 23.64508 | 795 ft | 102 kts | 79° |
| 2026-05-05 16:11 | 61.41537 | 23.65913 | 830 ft | 76 kts | 324° |
| 2026-05-05 16:12 | 61.41962 | 23.65305 | 836 ft | 74 kts | 303° |
| 2026-05-05 16:12 | 61.42096 | 23.63421 | 488 ft | 65 kts | 250° |
| 2026-05-05 16:13 | 61.41523 | 23.60932 | 462 ft | 77 kts | 247° |
| 2026-05-05 16:13 | 61.41272 | 23.59871 | 664 ft | 87 kts | 245° |
| 2026-05-05 16:13 | 61.41036 | 23.58680 | 904 ft | 93 kts | 261° |
| 2026-05-05 16:14 | 61.41655 | 23.56447 | 1500 ft | 98 kts | 320° |
| 2026-05-05 16:14 | 61.43259 | 23.57094 | 1506 ft | 139 kts | 22° |
| 2026-05-05 16:15 | 61.44905 | 23.59140 | 1500 ft | 137 kts | 22° |
| 2026-05-05 16:15 | 61.46556 | 23.61085 | 1503 ft | 135 kts | 21° |
| 2026-05-05 16:16 | 61.48188 | 23.63063 | 1499 ft | 139 kts | 33° |
| 2026-05-05 16:16 | 61.49291 | 23.66464 | 1506 ft | 146 kts | 60° |
| 2026-05-05 16:17 | 61.50180 | 23.70252 | 1498 ft | 142 kts | 47° |
| 2026-05-05 16:17 | 61.50965 | 23.71345 | 1497 ft | 135 kts | 14° |
| 2026-05-05 16:18 | 61.52697 | 23.72845 | 1499 ft | 135 kts | 15° |
| 2026-05-05 16:18 | 61.53554 | 23.73601 | 1500 ft | 135 kts | 15° |
| 2026-05-05 16:18 | 61.55285 | 23.75101 | 1497 ft | 134 kts | 15° |
| 2026-05-05 16:19 | 61.56149 | 23.75853 | 1494 ft | 134 kts | 15° |
| 2026-05-05 16:19 | 61.57027 | 23.76492 | 1496 ft | 133 kts | 10° |
| 2026-05-05 16:19 | 61.58819 | 23.77359 | 1496 ft | 131 kts | 359° |
| 2026-05-05 16:20 | 61.60623 | 23.77988 | 1499 ft | 133 kts | 7° |
| 2026-05-05 16:20 | 61.62408 | 23.79192 | 1489 ft | 144 kts | 37° |
| 2026-05-05 16:21 | 61.61944 | 23.82617 | 1439 ft | 142 kts | 181° |
| 2026-05-05 16:22 | 61.62076 | 23.78724 | 1277 ft | 122 kts | 336° |
| 2026-05-05 16:22 | 61.63717 | 23.79405 | 1488 ft | 120 kts | 15° |
| 2026-05-05 16:23 | 61.65373 | 23.80741 | 1493 ft | 132 kts | 11° |
| 2026-05-05 16:23 | 61.66248 | 23.81320 | 1494 ft | 132 kts | 10° |
| 2026-05-05 16:23 | 61.67777 | 23.80619 | 1492 ft | 116 kts | 296° |
| 2026-05-05 16:24 | 61.67796 | 23.78976 | 1493 ft | 119 kts | 250° |
| 2026-05-05 16:24 | 61.67182 | 23.77828 | 1495 ft | 128 kts | 204° |
| 2026-05-05 16:24 | 61.65353 | 23.77450 | 1497 ft | 136 kts | 191° |
| 2026-05-05 16:25 | 61.64405 | 23.77360 | 1494 ft | 137 kts | 190° |
| 2026-05-05 16:25 | 61.62491 | 23.77118 | 1488 ft | 136 kts | 200° |
| 2026-05-05 16:25 | 61.61787 | 23.76032 | 1487 ft | 123 kts | 246° |
| 2026-05-05 16:26 | 61.62349 | 23.73222 | 1500 ft | 125 kts | 338° |
| 2026-05-05 16:26 | 61.63697 | 23.74427 | 1503 ft | 145 kts | 53° |
| 2026-05-05 16:27 | 61.63894 | 23.76518 | 1501 ft | 152 kts | 98° |
| 2026-05-05 16:27 | 61.63408 | 23.78430 | 1503 ft | 149 kts | 144° |
| 2026-05-05 16:27 | 61.62497 | 23.79160 | 1508 ft | 137 kts | 186° |
| 2026-05-05 16:27 | 61.61553 | 23.79118 | 1501 ft | 138 kts | 189° |
| 2026-05-05 16:28 | 61.60603 | 23.78924 | 1499 ft | 135 kts | 205° |
| 2026-05-05 16:28 | 61.59744 | 23.78221 | 1500 ft | 131 kts | 210° |
| 2026-05-05 16:28 | 61.58913 | 23.77453 | 1500 ft | 130 kts | 212° |
| 2026-05-05 16:28 | 61.58092 | 23.76647 | 1501 ft | 130 kts | 212° |
| 2026-05-05 16:29 | 61.57282 | 23.75831 | 1501 ft | 129 kts | 212° |
| 2026-05-05 16:29 | 61.56433 | 23.75180 | 1497 ft | 132 kts | 200° |
| 2026-05-05 16:29 | 61.55524 | 23.74875 | 1498 ft | 132 kts | 195° |
| 2026-05-05 16:29 | 61.54618 | 23.74594 | 1499 ft | 132 kts | 195° |
| 2026-05-05 16:30 | 61.53706 | 23.74324 | 1497 ft | 132 kts | 195° |
| 2026-05-05 16:30 | 61.51687 | 23.73740 | 1497 ft | 133 kts | 195° |